Time;durP1;ratioP1;P1;durP2;ratioP2;P2;SDS_P1;SDS_P2;PMS_P1;PMS_P2;Temp;Humidity;BMP_temperature;BMP_pressure;BME280_temperature;BME280_humidity;BME280_pressure;Samples;Min_cycle;Max_cycle;Signal;HPM_P1;HPM_P2
2022/10/22 00:01:43;;;;;;;8.23;5.90;;;;;;;2.91;100.00;100258.92;1741214;80;21056;-47
2022/10/22 00:04:10;;;;;;;9.97;5.93;;;;;;;2.90;100.00;100267.78;1741838;80;21046;-47
2022/10/22 00:06:37;;;;;;;6.83;5.33;;;;;;;2.90;100.00;100257.16;1742176;80;21966;-47
2022/10/22 00:09:03;;;;;;;10.27;5.30;;;;;;;2.92;100.00;100266.00;1746585;80;21101;-47
2022/10/22 00:11:31;;;;;;;8.10;6.00;;;;;;;2.93;100.00;100249.16;1747006;80;21539;-46
2022/10/22 00:13:58;;;;;;;8.00;4.63;;;;;;;2.94;100.00;100249.15;1745094;80;21062;-47
2022/10/22 00:16:24;;;;;;;9.17;5.27;;;;;;;2.96;100.00;100249.14;1709875;82;21067;-48
2022/10/22 00:18:52;;;;;;;7.47;5.73;;;;;;;2.97;100.00;100247.80;1744748;80;23262;-46
2022/10/22 00:21:18;;;;;;;8.07;5.57;;;;;;;2.99;100.00;100251.75;1744012;80;21690;-47
2022/10/22 00:23:45;;;;;;;10.77;6.63;;;;;;;2.99;100.00;100243.77;1744461;80;21206;-47
2022/10/22 00:26:12;;;;;;;7.73;5.83;;;;;;;2.98;100.00;100236.23;1740459;80;21062;-47
2022/10/22 00:28:38;;;;;;;9.90;6.63;;;;;;;2.99;100.00;100230.48;1741944;80;21031;-47
2022/10/22 00:31:05;;;;;;;11.10;6.10;;;;;;;3.00;100.00;100225.59;1744144;80;21827;-47
2022/10/22 00:33:31;;;;;;;6.57;5.23;;;;;;;2.99;100.00;100210.53;1745168;80;21065;-47
2022/10/22 00:35:58;;;;;;;8.10;5.77;;;;;;;2.96;100.00;100207.48;1742051;80;21077;-47
2022/10/22 00:38:24;;;;;;;5.70;4.20;;;;;;;2.94;100.00;100221.23;1741438;80;21669;-47
2022/10/22 00:40:52;;;;;;;7.93;4.87;;;;;;;2.94;100.00;100217.23;1742158;80;21085;-47
2022/10/22 00:43:19;;;;;;;7.10;4.07;;;;;;;2.94;100.00;100199.95;1743324;80;22577;-47
2022/10/22 00:45:46;;;;;;;6.03;4.00;;;;;;;2.96;100.00;100209.25;1743931;80;21152;-48
2022/10/22 00:48:19;;;;;;;5.93;3.83;;;;;;;2.98;100.00;100210.09;1749228;80;21562;-47
2022/10/22 00:51:00;;;;;;;7.73;4.83;;;;;;;3.01;100.00;100200.77;1743820;80;21054;-47
2022/10/22 00:53:40;;;;;;;7.53;4.33;;;;;;;3.04;100.00;100189.66;1710184;82;21130;-47
2022/10/22 00:56:06;;;;;;;7.20;5.33;;;;;;;3.07;100.00;100190.05;1743431;80;23098;-47
2022/10/22 00:58:35;;;;;;;9.80;5.43;;;;;;;3.09;100.00;100185.61;1743723;80;21512;-47
2022/10/22 01:01:02;;;;;;;6.70;5.30;;;;;;;3.09;100.00;100186.94;1741994;80;21032;-47
2022/10/22 01:03:28;;;;;;;10.13;5.60;;;;;;;3.08;100.00;100179.84;1745648;80;22432;-47
2022/10/22 01:06:00;;;;;;;11.20;5.53;;;;;;;3.09;100.00;100184.72;1739488;80;21052;-46
2022/10/22 01:08:47;;;;;;;8.47;5.57;;;;;;;3.08;100.00;100161.67;1741956;80;21840;-48
2022/10/22 01:11:35;;;;;;;10.27;6.00;;;;;;;3.06;100.00;100172.81;1743253;80;21090;-47
2022/10/22 01:14:07;;;;;;;8.50;5.37;;;;;;;3.03;100.00;100171.05;1744875;80;21107;-46
2022/10/22 01:17:12;;;;;;;6.45;5.12;;;;;;;2.99;100.00;100166.20;1739707;80;21047;-47
2022/10/22 01:20:02;;;;;;;8.63;4.67;;;;;;;2.98;100.00;100171.09;1742423;80;21061;-46
2022/10/22 01:22:49;;;;;;;9.80;4.47;;;;;;;2.96;100.00;100154.29;1744188;80;22628;-47
2022/10/22 01:25:32;;;;;;;7.17;4.73;;;;;;;2.93;100.00;100155.64;1740471;80;21039;-46
2022/10/22 01:28:10;;;;;;;9.80;5.00;;;;;;;2.92;100.00;100147.23;1742779;80;21065;-46
2022/10/22 01:30:37;;;;;;;7.90;5.77;;;;;;;2.90;100.00;100141.04;1741700;80;21172;-48
2022/10/22 01:33:05;;;;;;;11.67;6.47;;;;;;;2.89;100.00;100144.59;1744092;80;21223;-45
2022/10/22 01:35:36;;;;;;;7.50;6.00;;;;;;;2.89;100.00;100153.05;1715857;80;21997;-46
2022/10/22 01:38:06;;;;;;;12.70;6.33;;;;;;;2.87;100.00;100149.52;1742945;80;21586;-47
2022/10/22 01:40:33;;;;;;;13.07;7.60;;;;;;;2.83;100.00;100151.31;1742759;80;21102;-45
2022/10/22 01:43:05;;;;;;;8.10;6.50;;;;;;;2.81;100.00;100154.44;1739682;80;21134;-45
2022/10/22 01:45:53;;;;;;;13.83;7.53;;;;;;;2.76;100.00;100148.30;1741048;80;21133;-46
2022/10/22 01:49:04;;;;;;;9.13;7.37;;;;;;;2.71;100.00;100147.92;1746985;80;24342;-46
2022/10/22 01:51:43;;;;;;;7.43;6.00;;;;;;;2.65;100.00;100146.19;1743683;80;21047;-47
2022/10/22 01:54:32;;;;;;;10.33;5.83;;;;;;;2.60;100.00;100147.58;1663590;82;21451;-46
2022/10/22 01:57:31;;;;;;;9.93;6.17;;;;;;;2.56;100.00;100152.91;1682217;83;21069;-46
2022/10/22 02:00:10;;;;;;;7.87;5.13;;;;;;;2.54;100.00;100148.09;1678223;83;22380;-47
2022/10/22 02:03:11;;;;;;;13.37;5.17;;;;;;;2.52;100.00;100145.89;1679730;83;21811;-47
2022/10/22 02:05:48;;;;;;;10.80;5.83;;;;;;;2.52;100.00;100146.77;1678096;83;21057;-47
2022/10/22 02:08:19;;;;;;;8.03;5.80;;;;;;;2.52;100.00;100146.77;1742232;80;21119;-47
2022/10/22 02:10:46;;;;;;;9.07;6.87;;;;;;;2.54;100.00;100142.78;1741280;80;21512;-47
2022/10/22 02:13:21;;;;;;;9.83;6.70;;;;;;;2.54;100.00;100148.97;1745351;80;21003;-47
2022/10/22 02:15:48;;;;;;;;;;;;;;;2.54;100.00;100141.45;1740914;80;23234;-47
2022/10/22 02:18:15;;;;;;;9.33;6.67;;;;;;;2.50;100.00;100137.92;1740413;80;20217;-47
2022/10/22 02:20:41;;;;;;;10.67;7.23;;;;;;;2.47;100.00;100129.97;1744672;80;21039;-47
2022/10/22 02:23:08;;;;;;;14.53;9.70;;;;;;;2.44;100.00;100133.13;1739398;80;22151;-47
2022/10/22 02:25:40;;;;;;;23.03;14.50;;;;;;;2.41;100.00;100131.37;1739386;80;21093;-47
2022/10/22 02:28:20;;;;;;;31.93;17.77;;;;;;;2.39;100.00;100126.50;1742605;80;21827;-47
2022/10/22 02:30:54;;;;;;;33.63;19.27;;;;;;;2.38;100.00;100127.88;1743312;80;21086;-47
2022/10/22 02:33:29;;;;;;;30.13;17.27;;;;;;;2.38;100.00;100121.23;1712965;80;21545;-49
2022/10/22 02:35:56;;;;;;;21.27;13.63;;;;;;;2.40;100.00;100118.97;1743371;80;21088;-47
2022/10/22 02:38:24;;;;;;;19.13;12.77;;;;;;;2.42;100.00;100110.55;1742287;80;21066;-47
2022/10/22 02:40:51;;;;;;;14.40;9.50;;;;;;;2.44;100.00;100107.44;1742282;80;21960;-47
2022/10/22 02:43:18;;;;;;;13.47;8.97;;;;;;;2.46;100.00;100102.11;1739770;80;21039;-47
2022/10/22 02:45:45;;;;;;;12.53;8.10;;;;;;;2.48;100.00;100101.63;1740558;80;21448;-47
2022/10/22 02:48:12;;;;;;;12.87;7.07;;;;;;;2.47;100.00;100094.55;1739146;80;22386;-46
2022/10/22 02:50:41;;;;;;;9.80;5.73;;;;;;;2.47;100.00;100094.55;1739720;80;21433;-46
2022/10/22 02:53:07;;;;;;;6.73;5.77;;;;;;;2.47;100.00;100101.19;1742194;80;22219;-47
2022/10/22 02:55:33;;;;;;;10.20;5.73;;;;;;;2.44;100.00;100092.82;1739414;80;21022;-47
2022/10/22 02:58:00;;;;;;;11.13;5.40;;;;;;;2.42;100.00;100093.73;1740549;80;21128;-47
2022/10/22 03:00:26;;;;;;;6.37;5.30;;;;;;;2.42;100.00;100096.38;1740496;80;21407;-48
2022/10/22 03:02:54;;;;;;;9.30;5.47;;;;;;;2.40;100.00;100102.16;1737994;80;21660;-47
2022/10/22 03:05:20;;;;;;;9.23;5.43;;;;;;;2.39;100.00;100095.95;1736764;80;21813;-46
2022/10/22 03:07:47;;;;;;;10.27;5.47;;;;;;;2.37;100.00;100089.80;1741337;80;21030;-47
2022/10/22 03:10:13;;;;;;;10.47;4.87;;;;;;;2.37;100.00;100076.96;1742199;80;21465;-47
2022/10/22 03:12:41;;;;;;;11.27;5.57;;;;;;;2.37;100.00;100063.68;1734379;80;21583;-48
2022/10/22 03:15:09;;;;;;;5.03;3.77;;;;;;;2.38;100.00;100062.78;1738762;80;21035;-47
2022/10/22 03:17:37;;;;;;;6.07;5.07;;;;;;;2.38;100.00;100061.46;1742737;80;21913;-47
2022/10/22 03:20:05;;;;;;;5.83;4.03;;;;;;;2.42;100.00;100063.17;1738971;80;21074;-47
2022/10/22 03:22:32;;;;;;;7.33;4.23;;;;;;;2.44;100.00;100060.94;1740962;80;21063;-47
2022/10/22 03:25:02;;;;;;;6.90;4.30;;;;;;;2.48;100.00;100070.63;1740880;80;21511;-47
2022/10/22 03:27:28;;;;;;;7.73;4.27;;;;;;;2.52;100.00;100053.77;1741581;80;21082;-47
2022/10/22 03:29:55;;;;;;;5.83;4.10;;;;;;;2.55;100.00;100049.72;1743779;80;21798;-47
2022/10/22 03:32:21;;;;;;;7.00;4.90;;;;;;;2.56;100.00;100046.63;1737807;80;21086;-48
2022/10/22 03:34:48;;;;;;;7.27;3.93;;;;;;;2.56;100.00;100038.64;1742595;80;21115;-47
2022/10/22 03:37:14;;;;;;;5.90;2.93;;;;;;;2.57;100.00;100045.73;1739320;80;21085;-47
2022/10/22 03:39:41;;;;;;;4.80;3.30;;;;;;;2.60;100.00;100040.39;1739175;80;21135;-47
2022/10/22 03:42:07;;;;;;;7.17;3.20;;;;;;;2.63;100.00;100033.27;1740190;80;21831;-48
2022/10/22 03:44:36;;;;;;;7.60;3.00;;;;;;;2.68;100.00;100038.97;1713700;80;21789;-48
2022/10/22 03:47:02;;;;;;;7.97;4.03;;;;;;;2.73;100.00;100037.12;1739448;80;21217;-47
2022/10/22 03:49:29;;;;;;;7.13;3.67;;;;;;;2.78;100.00;100039.30;1737340;80;21704;-47
2022/10/22 03:51:56;;;;;;;6.20;4.10;;;;;;;2.84;100.00;100041.87;1739201;80;21204;-47
2022/10/22 03:54:23;;;;;;;9.53;4.20;;;;;;;2.88;100.00;100039.17;1740863;80;21789;-47
2022/10/22 03:56:50;;;;;;;7.53;4.03;;;;;;;2.91;100.00;100038.23;1740969;80;21056;-47
2022/10/22 03:59:16;;;;;;;6.10;3.13;;;;;;;2.94;100.00;100036.42;1741075;80;21023;-47
2022/10/22 04:01:44;;;;;;;10.47;4.27;;;;;;;2.97;100.00;100038.17;1738706;80;21712;-47
2022/10/22 04:04:10;;;;;;;7.33;4.53;;;;;;;2.97;100.00;100032.85;1740314;80;21051;-47
2022/10/22 04:06:38;;;;;;;7.10;3.47;;;;;;;2.99;100.00;100021.27;1737659;80;21949;-47
2022/10/22 04:09:04;;;;;;;6.17;4.33;;;;;;;3.00;100.00;100015.50;1732530;80;21137;-47
2022/10/22 04:11:31;;;;;;;8.33;3.97;;;;;;;3.01;100.00;100012.83;1731799;80;21094;-47
2022/10/22 04:13:58;;;;;;;5.40;3.57;;;;;;;2.99;100.00;100013.30;1735830;80;21599;-46
2022/10/22 04:16:29;;;;;;;7.40;4.03;;;;;;;3.00;100.00;100017.72;1735002;80;21057;-47
2022/10/22 04:18:54;;;;;;;6.33;4.03;;;;;;;3.02;100.00;100017.70;1733114;80;21961;-47
2022/10/22 04:21:20;;;;;;;10.40;5.43;;;;;;;3.02;100.00;100013.27;1731424;80;21124;-47
2022/10/22 04:23:50;;;;;;;8.73;4.90;;;;;;;3.03;100.00;100013.70;1733483;80;21035;-47
2022/10/22 04:26:17;;;;;;;6.60;4.47;;;;;;;3.06;100.00;100010.58;1739588;80;21159;-47
2022/10/22 04:28:44;;;;;;;7.47;4.40;;;;;;;3.07;100.00;100002.55;1737824;80;21058;-47
2022/10/22 04:31:15;;;;;;;9.43;4.70;;;;;;;3.09;100.00;100006.52;1734336;80;21129;-47
2022/10/22 04:33:42;;;;;;;7.83;3.63;;;;;;;3.10;100.00;100006.95;1736689;80;21535;-47
2022/10/22 04:36:11;;;;;;;6.07;3.27;;;;;;;3.11;100.00;100004.73;1732047;80;21047;-47
2022/10/22 04:38:39;;;;;;;7.63;3.27;;;;;;;3.11;100.00;100006.94;1734523;80;21413;-46
2022/10/22 04:41:16;;;;;;;3.63;2.63;;;;;;;3.13;100.00;100012.24;1733871;80;21658;-46
2022/10/22 04:43:44;;;;;;;5.27;3.03;;;;;;;3.14;100.00;100013.56;1733607;80;23798;-46
2022/10/22 04:46:12;;;;;;;6.57;2.87;;;;;;;3.17;100.00;100005.96;1731803;80;21082;-47
2022/10/22 04:48:39;;;;;;;6.57;2.10;;;;;;;3.20;100.00;100007.26;1736346;80;22422;-46
2022/10/22 04:51:07;;;;;;;10.27;3.37;;;;;;;3.23;100.00;100008.08;1734653;80;21633;-47
2022/10/22 04:53:39;;;;;;;5.53;2.50;;;;;;;3.27;100.00;100011.58;1736019;80;21083;-46
2022/10/22 04:56:10;;;;;;;5.60;3.33;;;;;;;3.33;100.00;100003.50;1733980;80;21345;-46
2022/10/22 04:58:37;;;;;;;8.33;3.47;;;;;;;3.36;100.00;99992.38;1733736;80;21137;-46
2022/10/22 05:01:20;;;;;;;5.73;3.87;;;;;;;3.42;100.00;99988.28;1736320;80;21088;-47
2022/10/22 05:03:48;;;;;;;8.97;5.27;;;;;;;3.46;100.00;99991.78;1733972;80;21035;-46
2022/10/22 05:06:15;;;;;;;6.93;4.50;;;;;;;3.47;100.00;99981.57;1734462;80;21022;-47
2022/10/22 05:08:43;;;;;;;7.87;4.30;;;;;;;3.47;100.00;99980.24;1737814;80;21086;-46
2022/10/22 05:11:16;;;;;;;9.33;5.70;;;;;;;3.46;100.00;99978.92;1745197;80;21039;-46
2022/10/22 05:13:44;;;;;;;8.43;5.20;;;;;;;3.45;100.00;99975.39;1732879;80;21045;-46
2022/10/22 05:16:10;;;;;;;9.40;4.00;;;;;;;3.43;100.00;99977.19;1731647;80;21077;-46
2022/10/22 05:20:23;;;;;;;7.97;4.40;;;;;;;3.42;100.00;99990.06;1771202;78;27958;-49
2022/10/22 05:22:51;;;;;;;6.60;3.13;;;;;;;3.41;100.00;99994.50;1746023;80;21088;-49
2022/10/22 05:25:18;;;;;;;6.37;2.90;;;;;;;3.45;100.00;99982.04;1744732;80;21874;-50
2022/10/22 05:27:50;;;;;;;6.70;1.73;;;;;;;3.49;100.00;99998.85;1744252;80;21073;-48
2022/10/22 05:30:16;;;;;;;8.77;2.27;;;;;;;3.53;100.00;99996.10;1743511;80;21108;-46
2022/10/22 05:32:44;;;;;;;5.87;2.50;;;;;;;3.60;100.00;99992.44;1740995;80;21593;-45
2022/10/22 05:35:10;;;;;;;6.43;2.80;;;;;;;3.64;100.00;99983.51;1747754;80;21073;-45
2022/10/22 05:37:38;;;;;;;3.73;2.13;;;;;;;3.70;100.00;99975.41;1741004;80;21487;-46
2022/10/22 05:40:06;;;;;;;8.03;2.43;;;;;;;3.76;100.00;99982.41;1753631;79;21113;-45
2022/10/22 05:42:33;;;;;;;3.60;2.37;;;;;;;3.79;100.00;99983.23;1764425;79;21151;-45
2022/10/22 05:44:59;;;;;;;9.33;2.83;;;;;;;3.83;100.00;99989.86;1755651;79;21534;-48
2022/10/22 05:47:30;;;;;;;8.00;2.87;;;;;;;3.86;100.00;99996.44;1759977;79;21031;-46
2022/10/22 05:49:56;;;;;;;5.07;2.30;;;;;;;3.88;100.00;99998.63;1735150;80;21900;-47
2022/10/22 05:52:23;;;;;;;8.30;3.20;;;;;;;3.89;100.00;100003.94;1756802;79;21058;-46
2022/10/22 05:54:49;;;;;;;9.80;2.63;;;;;;;3.90;100.00;99994.16;1756500;80;22665;-46
2022/10/22 05:57:16;;;;;;;5.67;2.33;;;;;;;3.93;100.00;99988.77;1756636;80;21514;-46
2022/10/22 05:59:43;;;;;;;5.93;1.63;;;;;;;3.95;100.00;99974.98;1753450;80;21101;-46
2022/10/22 06:02:09;;;;;;;12.33;2.37;;;;;;;3.98;100.00;99968.27;1758967;79;21939;-47
2022/10/22 06:04:36;;;;;;;6.10;2.10;;;;;;;4.03;100.00;99977.05;1754079;79;21519;-47
2022/10/22 06:07:02;;;;;;;8.80;1.90;;;;;;;4.08;100.00;99978.70;1757255;80;21143;-47
2022/10/22 06:09:34;;;;;;;5.13;1.90;;;;;;;4.15;100.00;99983.49;1755018;79;21084;-47
2022/10/22 06:12:03;;;;;;;3.70;2.63;;;;;;;4.21;100.00;99982.04;1759150;79;21563;-47
2022/10/22 06:14:31;;;;;;;3.87;2.20;;;;;;;4.28;100.00;99978.34;1758805;80;21842;-47
2022/10/22 06:16:58;;;;;;;3.63;2.17;;;;;;;4.36;100.00;99982.19;1755630;79;21010;-48
2022/10/22 06:19:25;;;;;;;7.30;3.00;;;;;;;4.44;100.00;99991.79;1753940;79;21027;-47
2022/10/22 06:24:53;;;;;;;8.33;3.43;;;;;;;4.68;100.00;99986.41;1790109;77;28904;-47
2022/10/22 06:27:20;;;;;;;5.73;1.97;;;;;;;4.81;100.00;99991.05;1765741;78;21085;-47
2022/10/22 06:29:47;;;;;;;8.37;2.33;;;;;;;4.93;100.00;99990.80;1768822;79;21937;-48
2022/10/22 06:32:13;;;;;;;5.27;2.30;;;;;;;5.06;100.00;99984.27;1764006;79;21065;-47
2022/10/22 06:34:41;;;;;;;7.40;1.83;;;;;;;5.20;100.00;99990.62;1765754;79;21059;-47
2022/10/22 06:37:09;;;;;;;22.60;12.07;;;;;;;5.34;100.00;99995.21;1767389;79;21099;-47
2022/10/22 06:39:36;;;;;;;8.57;4.70;;;;;;;5.49;100.00;99986.83;1755965;79;21048;-49
2022/10/22 06:42:03;;;;;;;6.27;2.97;;;;;;;5.63;100.00;99983.36;1738038;80;23713;-46
2022/10/22 06:44:31;;;;;;;3.60;2.10;;;;;;;5.76;100.00;99986.63;1747898;80;21078;-49
2022/10/22 06:46:58;;;;;;;4.13;2.60;;;;;;;5.88;100.00;99988.12;1746551;80;21231;-48
2022/10/22 06:49:26;;;;;;;7.27;2.90;;;;;;;5.99;100.00;99980.72;1743243;80;21077;-46
2022/10/22 06:51:53;;;;;;;5.70;3.07;;;;;;;6.07;100.00;99980.94;1740647;80;21349;-46
2022/10/22 06:54:20;;;;;;;5.30;2.30;;;;;;;6.15;100.00;99974.50;1745862;80;21628;-47
2022/10/22 06:56:48;;;;;;;4.97;2.60;;;;;;;6.22;100.00;99978.76;1741263;80;21054;-46
2022/10/22 06:59:14;;;;;;;5.20;3.13;;;;;;;6.30;100.00;99972.74;1738634;80;21070;-47
2022/10/22 07:01:41;;;;;;;6.70;2.00;;;;;;;6.39;100.00;99983.19;1740313;80;21390;-47
2022/10/22 07:04:08;;;;;;;6.80;1.90;;;;;;;6.46;100.00;99978.95;1704973;81;21076;-47
2022/10/22 07:06:35;;;;;;;7.93;5.30;;;;;;;6.55;100.00;99967.12;1667742;82;21860;-48
2022/10/22 07:09:02;;;;;;;5.17;2.10;;;;;;;6.64;100.00;99964.19;1678823;83;21308;-47
2022/10/22 07:11:34;;;;;;;3.70;1.70;;;;;;;6.75;100.00;99966.56;1708269;81;21104;-47
2022/10/22 07:14:00;;;;;;;2.30;1.37;;;;;;;6.84;100.00;99960.48;1706571;81;21486;-47
2022/10/22 07:16:28;;;;;;;3.57;1.67;;;;;;;6.96;100.00;99959.70;1709902;81;21352;-47
2022/10/22 07:18:54;;;;;;;2.80;1.40;;;;;;;7.06;100.00;99962.53;1709095;81;21896;-47
2022/10/22 07:21:21;;;;;;;3.80;1.52;;;;;;;7.15;100.00;99954.18;1710867;81;21047;-47
2022/10/22 07:23:48;;;;;;;3.08;1.60;;;;;;;7.23;100.00;99949.47;1699313;81;21082;-47
2022/10/22 07:26:16;;;;;;;2.60;1.40;;;;;;;7.32;100.00;99950.52;1722922;80;21062;-47
2022/10/22 07:28:42;;;;;;;3.72;1.72;;;;;;;7.37;100.00;99939.21;1732286;80;21181;-47
2022/10/22 07:31:10;;;;;;;2.85;2.02;;;;;;;7.41;100.00;99930.13;1726653;80;21854;-47
2022/10/22 07:33:37;;;;;;;3.77;2.37;;;;;;;7.44;100.00;99932.72;1688981;82;21136;-48
2022/10/22 07:36:05;;;;;;;3.02;1.55;;;;;;;7.47;100.00;99936.66;1688141;82;21510;-48
2022/10/22 07:38:32;;;;;;;2.45;1.80;;;;;;;7.50;100.00;99936.53;1729708;80;21702;-47
2022/10/22 07:40:58;;;;;;;2.67;1.62;;;;;;;7.52;100.00;99930.67;1725566;80;21145;-47
2022/10/22 07:43:25;;;;;;;5.50;2.05;;;;;;;7.53;100.00;99918.16;1730827;80;22601;-47
2022/10/22 07:45:52;;;;;;;3.37;2.85;;;;;;;7.57;100.00;99922.00;1726272;80;21113;-46
2022/10/22 07:48:18;;;;;;;3.72;1.65;;;;;;;7.60;100.00;99928.61;1735839;80;22341;-46
2022/10/22 07:50:47;;;;;;;5.50;2.47;;;;;;;7.64;100.00;99936.56;1725533;80;21543;-47
2022/10/22 07:53:14;;;;;;;2.65;1.87;;;;;;;7.65;100.00;99940.53;1704868;80;22105;-47
2022/10/22 07:55:40;;;;;;;7.20;1.45;;;;;;;7.69;100.00;99952.00;1730095;80;21946;-46
2022/10/22 07:58:07;;;;;;;3.70;1.55;;;;;;;7.70;100.00;99949.73;1728225;80;21077;-47
2022/10/22 08:00:33;;;;;;;3.05;1.32;;;;;;;7.72;100.00;99943.88;1725194;80;21070;-47
2022/10/22 08:03:00;;;;;;;5.33;1.55;;;;;;;7.74;100.00;99942.03;1726581;80;21098;-48
2022/10/22 08:05:26;;;;;;;3.00;1.50;;;;;;;7.77;100.00;99944.12;1724684;80;21039;-47
2022/10/22 08:07:53;;;;;;;3.90;1.55;;;;;;;7.81;100.00;99947.13;1689321;82;21913;-47
2022/10/22 08:10:19;;;;;;;3.35;1.62;;;;;;;7.85;100.00;99943.86;1731760;80;21047;-47
2022/10/22 08:12:46;;;;;;;3.98;1.67;;;;;;;7.90;100.00;99947.27;1726460;80;21094;-47
2022/10/22 08:15:14;;;;;;;6.67;1.98;;;;;;;7.95;100.00;99952.00;1695624;82;21087;-47
2022/10/22 08:17:40;;;;;;;4.10;2.45;;;;;;;7.96;100.00;99939.89;1735807;80;22151;-47
2022/10/22 08:20:08;;;;;;;2.50;1.98;;;;;;;7.99;100.00;99938.42;1726528;80;21944;-47
2022/10/22 08:22:35;;;;;;;5.30;1.72;;;;;;;8.01;100.00;99935.70;1732973;80;21526;-47
2022/10/22 08:25:03;;;;;;;2.62;1.70;;;;;;;8.03;100.00;99937.86;1730715;80;21412;-46
2022/10/22 08:27:29;;;;;;;2.65;1.98;;;;;;;8.04;100.00;99940.08;1733467;80;21042;-47
2022/10/22 08:29:56;;;;;;;2.80;1.32;;;;;;;8.05;100.00;99939.16;1734887;80;21327;-46
2022/10/22 08:32:23;;;;;;;4.33;2.15;;;;;;;8.05;100.00;99937.36;1731568;80;21991;-47
2022/10/22 08:34:50;;;;;;;3.83;1.57;;;;;;;8.05;100.00;99933.80;1729471;80;21027;-47
2022/10/22 08:37:16;;;;;;;4.20;1.22;;;;;;;8.05;100.00;99931.99;1696808;82;21534;-47
2022/10/22 08:39:44;;;;;;;9.88;4.58;;;;;;;8.05;100.00;99925.29;1739925;80;21049;-47
2022/10/22 08:44:40;;;;;;;26.00;18.87;;;;;;;8.09;100.00;99938.98;1773179;78;22660;-48
2022/10/22 08:47:20;;;;;;;103.58;71.50;;;;;;;8.11;100.00;99935.79;1755065;80;21530;-48
2022/10/22 08:49:48;;;;;;;15.23;9.45;;;;;;;8.16;100.00;99928.94;1727366;81;21930;-48
2022/10/22 08:52:16;;;;;;;4.30;3.30;;;;;;;8.21;100.00;99924.28;1737444;80;21455;-48
2022/10/22 08:54:57;;;;;;;4.45;1.75;;;;;;;8.25;100.00;99929.46;1715830;81;21041;-48
2022/10/22 08:57:51;;;;;;;4.80;1.90;;;;;;;8.29;100.00;99923.07;1704900;81;21095;-48
2022/10/22 09:00:29;;;;;;;3.77;1.42;;;;;;;8.33;100.00;99927.44;1677981;83;21744;-47
2022/10/22 09:03:30;;;;;;;6.97;1.60;;;;;;;8.37;100.00;99919.27;1702118;82;21843;-48
2022/10/22 09:06:13;;;;;;;2.67;2.02;;;;;;;8.37;100.00;99921.48;1699259;82;21061;-48
2022/10/22 09:08:42;;;;;;;4.97;2.30;;;;;;;8.35;100.00;99917.97;1700739;82;21089;-48
2022/10/22 09:11:17;;;;;;;3.08;1.98;;;;;;;8.36;100.00;99923.75;1703536;82;21088;-48
2022/10/22 09:13:44;;;;;;;1.95;1.67;;;;;;;8.34;100.00;99923.80;1701816;82;21109;-47
2022/10/22 09:16:30;;;;;;;2.70;1.60;;;;;;;8.33;100.00;99925.22;1701708;82;22537;-47
2022/10/22 09:19:23;;;;;;;3.75;2.22;;;;;;;8.32;100.00;99916.77;1681056;82;21101;-47
2022/10/22 09:22:12;;;;;;;3.95;1.75;;;;;;;8.27;100.00;99902.13;1709015;82;22271;-47
2022/10/22 09:24:55;;;;;;;6.03;1.62;;;;;;;8.26;100.00;99886.97;1703447;82;21065;-48
2022/10/22 09:27:27;;;;;;;95.20;67.05;;;;;;;8.27;100.00;99893.20;1707436;82;21081;-47
2022/10/22 09:29:54;;;;;;;103.00;64.95;;;;;;;8.28;100.00;99884.23;1708248;82;21859;-48
2022/10/22 09:32:20;;;;;;;234.67;147.13;;;;;;;8.30;100.00;99881.91;1700501;82;21676;-47
2022/10/22 09:34:48;;;;;;;453.40;261.90;;;;;;;8.33;100.00;99879.16;1706961;82;21152;-47
2022/10/22 09:37:18;;;;;;;204.80;119.30;;;;;;;8.37;100.00;99870.52;1708426;82;21466;-48
2022/10/22 09:39:47;;;;;;;51.98;30.10;;;;;;;8.42;100.00;99869.02;1694955;82;21156;-47
2022/10/22 09:42:15;;;;;;;8.80;4.47;;;;;;;8.45;100.00;99863.05;1683900;82;21849;-46
2022/10/22 09:44:42;;;;;;;4.53;2.25;;;;;;;8.47;100.00;99859.86;1678573;83;21087;-47
2022/10/22 09:47:37;;;;;;;2.85;1.87;;;;;;;8.49;100.00;99855.31;1676194;83;21116;-47
2022/10/22 09:50:27;;;;;;;2.10;1.52;;;;;;;8.52;100.00;99849.81;1676647;83;21120;-47
2022/10/22 09:53:22;;;;;;;6.30;1.30;;;;;;;8.55;100.00;99842.13;1677811;83;21115;-47
2022/10/22 09:55:52;;;;;;;3.70;2.47;;;;;;;8.59;100.00;99849.14;1675002;83;21855;-47
2022/10/22 09:58:18;;;;;;;2.67;2.17;;;;;;;8.63;100.00;99854.77;1677190;83;22559;-47
2022/10/22 10:00:48;;;;;;;2.33;1.40;;;;;;;8.67;100.00;99859.11;1677996;83;21669;-48
2022/10/22 10:03:19;;;;;;;1.65;1.50;;;;;;;8.72;100.00;99859.78;1678764;83;21042;-47
2022/10/22 10:05:48;;;;;;;4.20;2.22;;;;;;;8.78;100.00;99858.20;1658867;83;21085;-48
2022/10/22 10:08:15;;;;;;;6.85;4.30;;;;;;;8.84;100.00;99848.59;1678493;83;21836;-49
2022/10/22 10:11:17;;;;;;;3.60;1.72;;;;;;;8.92;100.00;99852.30;1684535;83;21088;-46
2022/10/22 10:13:48;;;;;;;4.20;1.20;;;;;;;8.98;100.00;99846.68;1680540;83;22647;-49
2022/10/22 10:16:40;;;;;;;3.45;1.40;;;;;;;9.04;100.00;99839.70;1677724;83;21091;-47
2022/10/22 10:19:28;;;;;;;3.27;2.98;;;;;;;9.08;100.00;99837.32;1681255;83;21089;-47
2022/10/22 10:22:10;;;;;;;4.90;4.45;;;;;;;9.13;100.00;99845.17;1688718;82;21847;-47
2022/10/22 10:25:11;;;;;;;2.60;1.87;;;;;;;9.17;100.00;99842.78;1677638;83;21700;-47
2022/10/22 10:27:49;;;;;;;4.12;1.82;;;;;;;9.20;100.00;99831.89;1686486;82;21135;-46
2022/10/22 10:30:20;;;;;;;4.78;1.55;;;;;;;9.24;100.00;99837.56;1678489;83;21187;-47
2022/10/22 10:33:20;;;;;;;2.42;1.55;;;;;;;9.27;100.00;99834.76;1661745;83;21038;-47
2022/10/22 10:36:15;;;;;;;16.57;9.53;;;;;;;9.30;100.00;99830.11;1689962;82;23808;-46
2022/10/22 10:39:09;;;;;;;53.30;26.33;;;;;;;9.34;100.00;99825.03;1680280;83;21578;-49
2022/10/22 10:41:59;;;;;;;85.75;43.90;;;;;;;9.41;100.00;99817.58;1661677;83;21642;-47
2022/10/22 10:44:51;;;;;;;53.95;30.68;;;;;;;9.47;100.00;99809.25;1677914;83;21115;-47
2022/10/22 10:47:32;;;;;;;14.47;10.18;;;;;;;9.53;100.00;99822.41;1668423;83;21101;-48
2022/10/22 10:50:32;;;;;;;6.72;4.03;;;;;;;9.57;100.00;99815.98;1663039;83;21972;-46
2022/10/22 10:53:04;;;;;;;6.35;2.90;;;;;;;9.59;100.00;99817.27;1676126;83;21073;-47
2022/10/22 10:55:43;;;;;;;57.53;28.60;;;;;;;9.60;100.00;99823.92;1682771;83;21061;-47
2022/10/22 10:58:22;;;;;;;62.80;30.48;;;;;;;9.61;100.00;99822.11;1657123;83;21594;-47
2022/10/22 11:00:58;;;;;;;53.40;26.60;;;;;;;9.61;100.00;99824.30;1671012;83;21102;-49
2022/10/22 11:03:45;;;;;;;63.68;32.15;;;;;;;9.63;100.00;99817.52;1673841;83;21793;-47
2022/10/22 11:06:15;;;;;;;32.78;17.55;;;;;;;9.65;100.00;99822.37;1642272;83;21117;-47
2022/10/22 11:08:48;;;;;;;28.05;17.80;;;;;;;9.66;100.00;99814.25;1671565;83;21010;-47
2022/10/22 11:11:27;;;;;;;20.20;14.18;;;;;;;9.68;100.00;99802.97;1676045;83;21097;-47
2022/10/22 11:14:13;;;;;;;21.42;13.10;;;;;;;9.70;100.00;99800.19;1727865;80;21238;-47
2022/10/22 11:16:54;;;;;;;14.33;9.70;;;;;;;9.73;100.00;99794.22;1696797;81;21842;-48
2022/10/22 11:19:46;;;;;;;17.40;12.10;;;;;;;9.76;100.00;99796.78;1717569;80;21058;-47
2022/10/22 11:22:43;;;;;;;7.10;5.80;;;;;;;9.81;100.00;99808.66;1722129;80;21562;-48
2022/10/22 11:25:17;;;;;;;10.08;6.78;;;;;;;9.86;100.00;99799.47;1697747;82;21093;-48
2022/10/22 11:28:01;;;;;;;21.80;12.93;;;;;;;9.93;100.00;99791.12;1719409;80;21022;-48
2022/10/22 11:30:31;;;;;;;16.25;11.57;;;;;;;9.97;100.00;99787.33;1717776;80;23363;-47
2022/10/22 11:34:33;;;;;;;13.13;9.17;;;;;;;10.02;100.00;99774.10;1775231;78;22478;-47
2022/10/22 11:37:00;;;;;;;12.00;8.30;;;;;;;10.04;100.00;99773.53;1734391;80;21080;-47
2022/10/22 11:39:52;;;;;;;9.88;6.67;;;;;;;10.08;100.00;99772.94;1706868;81;21977;-47
2022/10/22 11:42:32;;;;;;;13.18;7.33;;;;;;;10.11;100.00;99770.13;1686416;81;21194;-47
2022/10/22 11:45:15;;;;;;;12.30;6.60;;;;;;;10.15;100.00;99760.95;1712974;81;21087;-47
2022/10/22 11:48:12;;;;;;;10.30;6.85;;;;;;;10.18;100.00;99747.41;1692021;83;21058;-47
2022/10/22 11:50:58;;;;;;;9.00;4.83;;;;;;;10.21;100.00;99740.52;1709331;82;21053;-46
2022/10/22 11:53:31;;;;;;;7.83;3.17;;;;;;;10.25;100.00;99744.82;1711349;82;22117;-48
2022/10/22 11:56:09;;;;;;;8.83;3.42;;;;;;;10.29;100.00;99739.71;1708586;82;21569;-48
2022/10/22 11:58:42;;;;;;;14.45;6.15;;;;;;;10.35;100.00;99743.92;1710727;82;21063;-48